• Join FlightAware (Why Join?)
  • Login
  • US Flag 
09:04AM EST


 

Airport Tracker/Info


-or-


 

Live Flight TrackerFlight Track Log ✈ SWA267 ✈ 23-Apr-2013 ✈ KMCO - KORF

Flight Track Log - Related Links

Times and Time Zones

All times are in EDT time to prevent confusion due to time zone crossing. See the SWA267 flight status page for this flight to view local times or setup timezone preferences in your user account.

Time Position Orientation Groundspeed Altitude Reporting Facility
EDT Latitude Longitude Course Direction KTS MPH feet Rate Location/Type
10:08AM 28.4333 -81.3000 24° Northeast 150 173 700  Level Orlando TRACON
10:09AM 28.4667 -81.2833 24° Northeast 188 216 2,000 1,980 Climbing Orlando TRACON
10:10AM 28.5167 -81.2667 16° North 211 243 4,300 2,820 Climbing Orlando TRACON
10:11AM 28.5833 -81.2833 348° North 260 299 7,700 3,060 Climbing Orlando TRACON
10:12AM 28.7203 -81.3064 352° North 288 331 12,400 2,880 Climbing Jacksonville Center
10:13AM 28.8122 -81.3264 349° North 310 357 15,300 2,100 Climbing Jacksonville Center
10:14AM 28.9108 -81.3486 349° North 337 388 16,700 2,040 Climbing Jacksonville Center
10:15AM 29.0092 -81.3706 349° North 359 413 19,500 2,520 Climbing Jacksonville Center
10:16AM 29.1094 -81.3906 350° North 367 422 21,800 2,280 Climbing Jacksonville Center
10:17AM 29.2161 -81.4031 354° North 381 438 24,100 2,220 Climbing Jacksonville Center
10:18AM 29.3269 -81.4111 356° North 391 450 26,300 1,740 Climbing Jacksonville Center
10:19AM 29.4250 -81.4239 354° North 391 450 27,600 1,680 Climbing Jacksonville Center
10:20AM 29.5381 -81.4342 355° North 391 450 29,700 2,040 Climbing Jacksonville Center
10:21AM 29.6486 -81.4444 355° North 396 456 31,700 1,800 Climbing Jacksonville Center
10:22AM 29.7572 -81.4547 355° North 396 456 33,400 1,800 Climbing Jacksonville Center
10:23AM 29.8764 -81.4672 355° North 389 448 35,300 1,320 Climbing Jacksonville Center
10:24AM 29.9831 -81.4753 356° North 389 448 36,100 840 Climbing Jacksonville Center
10:25AM 30.0917 -81.4881 354° North 389 448 37,000 420 Climbing Jacksonville Center
10:26AM 30.2006 -81.4961 356° North 389 448 37,000  Level Jacksonville Center
10:27AM 30.3069 -81.5067 355° North 389 448 37,000  Level Jacksonville Center
10:28AM 30.4175 -81.5028 North 389 448 37,000  Level Jacksonville Center
10:29AM 30.5261 -81.4964 North 389 448 37,000  Level Jacksonville Center
10:30AM 30.6386 -81.4850 North 389 448 37,000  Level Jacksonville Center
10:31AM 30.7472 -81.4786 North 389 448 37,000  Level Jacksonville Center
10:32AM 30.8578 -81.4697 North 389 448 37,000  Level Jacksonville Center
10:33AM 30.9706 -81.4606 North 389 448 37,000  Level Jacksonville Center
10:34AM 31.0789 -81.4542 North 389 448 37,000  Level Jacksonville Center
10:35AM 31.1894 -81.4428 North 389 448 37,000  Level Jacksonville Center
10:36AM 31.3000 -81.4264 North 389 448 37,000  Level Jacksonville Center
10:37AM 31.4061 -81.3956 14° North 394 453 37,000  Level Jacksonville Center
10:38AM 31.5017 -81.3697 13° North 394 453 37,000  Level Jacksonville Center
10:39AM 31.6183 -81.3408 12° North 394 453 37,000  Level Jacksonville Center
10:40AM 31.7267 -81.3122 13° North 394 453 37,000  Level Jacksonville Center
10:41AM 31.8222 -81.2861 13° North 388 447 37,000  Level Jacksonville Center
10:42AM 31.9283 -81.2575 13° North 388 447 37,000  Level Jacksonville Center
10:43AM 32.0344 -81.2286 13° North 393 452 37,000  Level Jacksonville Center
10:44AM 32.1383 -81.1922 17° North 393 452 37,000  Level Jacksonville Center
10:45AM 32.2183 -81.0903 47° Northeast 393 452 37,000  Level Jacksonville Center
10:46AM 32.2919 -80.9806 52° Northeast 404 465 37,000  Level Jacksonville Center
10:47AM 32.3736 -80.8558 52° Northeast 424 488 37,000  Level Jacksonville Center
10:48AM 32.4386 -80.7511 54° Northeast 433 498 37,000  Level Jacksonville Center
10:49AM 32.5119 -80.6386 52° Northeast 433 498 37,000  Level Jacksonville Center
10:50AM 32.5847 -80.5233 53° Northeast 433 498 37,000  Level Jacksonville Center
10:51AM 32.6578 -80.4078 53° Northeast 438 504 37,000  Level Jacksonville Center
10:52AM 32.7328 -80.2922 52° Northeast 443 510 37,000  Level Jacksonville Center
10:53AM 32.8033 -80.1739 55° Northeast 443 510 37,000  Level Jacksonville Center
10:54AM 32.8781 -80.0606 52° Northeast 443 510 37,000  Level Jacksonville Center
10:55AM 32.9675 -79.9611 43° Northeast 437 503 37,000  Level Jacksonville Center
10:56AM 33.0594 -79.8739 38° Northeast 427 491 37,000  Level Jacksonville Center
10:57AM 33.1614 -79.7786 38° Northeast 427 491 37,000  Level Jacksonville Center
10:58AM 33.2533 -79.6908 39° Northeast 427 491 37,000  Level Jacksonville Center
10:59AM 33.3447 -79.6006 40° Northeast 427 491 37,000  Level Jacksonville Center
11:00AM 33.4364 -79.5100 39° Northeast 427 491 37,000  Level Jacksonville Center
11:01AM 33.5297 -79.4194 39° Northeast 422 486 37,000  Level Jacksonville Center
11:02AM 33.6233 -79.3283 39° Northeast 427 491 37,000  Level Jacksonville Center
11:03AM 33.6983 -79.2556 39° Northeast 427 491 37,000 -120 Level Jacksonville Center
11:04AM 33.7958 -79.1564 40° Northeast 422 486 36,800 -1,080 Descending Jacksonville Center
11:05AM 33.8650 -79.0311 56° Northeast 430 495 34,900 -1,800 Descending Jacksonville Center
11:06AM 33.9258 -78.9081 59° Northeast 430 495 33,300 -720 Descending Jacksonville Center
11:08AM 34.0722 -78.7331 45° Northeast 418 481 33,000 -120 Descending Washington Center
11:09AM 34.1639 -78.6514 36° Northeast 405 466 33,000  Level Washington Center
11:10AM 34.2558 -78.5719 36° Northeast 405 466 33,000  Level Washington Center
11:11AM 34.3494 -78.4897 36° Northeast 405 466 33,000  Level Washington Center
11:12AM 34.4433 -78.4050 37° Northeast 410 472 33,000  Level Washington Center
11:13AM 34.5478 -78.3128 36° Northeast 416 479 33,000  Level Washington Center
11:14AM 34.6414 -78.2275 37° Northeast 416 479 33,000  Level Washington Center
11:15AM 34.7394 -78.1397 36° Northeast 416 479 33,000  Level Washington Center
11:16AM 34.8350 -78.0489 38° Northeast 421 484 33,000  Level Washington Center
11:17AM 34.9308 -77.9583 38° Northeast 427 491 33,000 -240 Level Washington Center
11:18AM 35.0264 -77.8722 36° Northeast 427 491 32,600 -1,500 Descending Washington Center
11:19AM 35.1219 -77.7861 36° Northeast 427 491 30,100 -1,860 Descending Washington Center
11:20AM 35.2111 -77.7044 37° Northeast 416 479 28,900 -1,140 Descending Washington Center
11:21AM 35.3000 -77.6228 37° Northeast 404 465 27,900 -1,080 Descending Washington Center
11:22AM 35.3933 -77.5436 35° Northeast 404 465 26,800 -1,080 Descending Washington Center
11:23AM 35.4881 -77.4797 29° Northeast 393 452 25,800 -960 Descending Washington Center
11:24AM 35.5831 -77.4156 29° Northeast 388 447 24,900 -960 Descending Washington Center
11:25AM 35.6778 -77.3511 29° Northeast 388 447 23,900 -1,020 Descending Washington Center
11:26AM 35.7686 -77.2892 29° Northeast 383 441 22,900 -1,020 Descending Washington Center
11:27AM 35.8611 -77.2272 28° Northeast 378 435 21,900 -960 Descending Washington Center
11:28AM 35.9453 -77.1700 29° Northeast 372 428 21,000 -480 Descending Washington Center
11:29AM 36.0256 -77.1072 32° Northeast 372 428 21,000 -120 Level Washington Center
11:30AM 36.1286 -77.0397 28° Northeast 372 428 20,800 -960 Descending Washington Center
11:31AM 36.1872 -77.0075 24° Northeast 381 438 19,400 -1,920 Descending Washington Center
11:31AM 36.2147 -76.9769 42° Northeast 372 428 18,900 -1,740 Descending Washington Center
11:32AM 36.3011 -76.9192 28° Northeast 355 409 17,100 -1,920 Descending Washington Center
11:33AM 36.3769 -76.8536 35° Northeast 343 395 15,100 -1,980 Descending Washington Center
11:34AM 36.4381 -76.7692 48° Northeast 332 382 13,200 -1,800 Descending Washington Center
11:35AM 36.4953 -76.6850 50° Northeast 321 369 11,600 -1,500 Descending Washington Center
11:36AM 36.5522 -76.6106 46° Northeast 308 354 10,200 -1,500 Descending Washington Center
11:37AM 36.6050 -76.5389 47° Northeast 294 338 8,600 -1,800 Descending Washington Center
11:38AM 36.6536 -76.4697 49° Northeast 280 322 6,600 -1,980 Descending Washington Center
11:39AM 36.7019 -76.4028 48° Northeast 268 308 4,700 -1,560 Descending Washington Center
11:40AM 36.7589 -76.3333 44° Northeast 177 204 2,900 -960 Descending Washington Center
11:41AM 36.7861 -76.3078 37° Northeast 113 130 2,500 -540 Descending Washington Center
11:42AM 36.8133 -76.2819 37° Northeast 123 142 1,900 -660 Descending Washington Center
11:43AM 36.8428 -76.2536 38° Northeast 128 147 1,200 -720 Descending Washington Center